Wichita, KS

11:37 PM CDT on July 07, 2015 (GMT -0500)
Riverside | | Change Station
CLOSE
Current Station
Personal Weather Station
Location: Wichita, KS
Elevation: 1329 ft
Nearby Weather Stations

Elev 1329 ft 37.70 °N, 97.35 °W | Updated 53 seconds ago

Rain
Rain
64.4 °F
Feels Like 64.4 °F
N
0.0
Wind Variable Wind from North
Gusts 0.0 mph

Today
High -- | Low -- °F
--% Chance of Precip.
Yesterday
High -- | Low -- °F
Precip. -- in
6:14 AM 8:54 PM
Waning Gibbous, 58% visible
Pressure 30.04 in
Visibility 8.0 miles
Clouds Overcast 2100 ft
Dew Point 63 °F
Humidity 94%
Rainfall 485.87 in
Snow Depth Not available.
UV 0 out of 12
Pollen .50 out of 12
Air Quality Not available.
Flu Activity Not available.
METAR KICT 080353Z 03008KT 8SM -RA OVC021 18/16 A3006 RMK AO2 SLP172 P0002 T01780156

More Conditions Fewer Conditions

Pressure 30.04 in
Visibility 8.0 miles
Clouds Overcast 2100 ft
Dew Point 63 °F
Humidity 94%
Rainfall 485.87 in
Snow Depth Not available.
UV 0 out of 12
Pollen .50 out of 12
Air Quality Not available.
Flu Activity Not available.
METAR KICT 080353Z 03008KT 8SM -RA OVC021 18/16 A3006 RMK AO2 SLP172 P0002 T01780156

More Conditions Fewer Conditions

10-Day Weather Forecast

×

Almanac

Astronomy

Jul. 07, 2015 Rise Set
Actual Time
Civil Twilight
Nautical Twilight
Astronomical Twilight
Moon
Length of Visible Light
Length of Day
Tomorrow will be .
, % of the Moon is Illuminated

Today's Extremes

State Highs State Lows

Community

WunderPhotos

Upload Photos

1,836,055 photos uploaded!

WunderBlogs® & News

Nearby

Air Quality

  Air Quality AQ Index Pollutant
Not available.

Snow Depth

Station Depth Elevation

Earthquake Activity

City Distance Mag. Time & Date
Minimum magnitude displayed is 2.5.

Coastal Water Temperatures

Place Temperature

Stations

Nearby Weather Stations

Station Location Temp. Windchill Dew Point Humidity Wind Precip. Elev Updated Type